西安 の空港の天気 - METARとTAF

西安咸陽国際空港 ( ZLXY / XIY ) - 中国 陝西省西安市
飛行場実況気象(Metar)
観測時間09/25 09:00 CST (09/25 01:00 UTC)
風向・風速北東 8m/s
視程7000m
天気現象弱い雨
少しの雲 雲底高度 300m
全天を覆う雲 雲底高度 1830m
気温13℃
湿度88%
気圧1017hPa
METARZLXY 250100Z 05008MPS 7000 -RA FEW010 OVC060 13/11 Q1017 NOSIG
過去の天気等 Google飛行場航空写真 Wunderground天気予報

過去48時間のMETAR

飛行場予報(TAF)
発表時間: 9/25 03:32 CST (9/24 19:32 UTC)
予報対象時間: 25日8時 CST ~ 26日8時 CST
風向・風速東北東 4m/s 瞬間風速 10m/s
視程6000m
少しの雲 雲底高度 1220m
TAF ZLXY 241932Z 2500/2524 06004G10MPS 6000 FEW040 TX17/2507Z TN14/2522Z